sensor_id;sensor_type;location;lat;lon;timestamp;P1;durP1;ratioP1;P2;durP2;ratioP2
19760;SDS011;10039;42.632;23.408;2023-06-22T00:02:02;0.10;;;0.10;;
19760;SDS011;10039;42.632;23.408;2023-06-22T00:04:27;0.10;;;0.10;;
19760;SDS011;10039;42.632;23.408;2023-06-22T00:06:53;0.10;;;0.10;;
19760;SDS011;10039;42.632;23.408;2023-06-22T00:09:18;0.10;;;0.10;;
19760;SDS011;10039;42.632;23.408;2023-06-22T00:11:44;0.03;;;0.03;;
19760;SDS011;10039;42.632;23.408;2023-06-22T00:14:10;0.10;;;0.10;;
19760;SDS011;10039;42.632;23.408;2023-06-22T00:16:35;0.10;;;0.10;;
19760;SDS011;10039;42.632;23.408;2023-06-22T00:19:00;0.10;;;0.10;;
19760;SDS011;10039;42.632;23.408;2023-06-22T00:21:27;0.10;;;0.10;;
19760;SDS011;10039;42.632;23.408;2023-06-22T00:23:53;0.15;;;0.15;;
19760;SDS011;10039;42.632;23.408;2023-06-22T00:26:19;0.10;;;0.10;;
19760;SDS011;10039;42.632;23.408;2023-06-22T00:28:46;0.10;;;0.10;;
19760;SDS011;10039;42.632;23.408;2023-06-22T00:31:11;0.10;;;0.10;;
19760;SDS011;10039;42.632;23.408;2023-06-22T00:33:37;0.10;;;0.10;;
19760;SDS011;10039;42.632;23.408;2023-06-22T00:36:03;0.08;;;0.08;;
19760;SDS011;10039;42.632;23.408;2023-06-22T00:38:28;0.10;;;0.10;;
19760;SDS011;10039;42.632;23.408;2023-06-22T00:40:54;0.10;;;0.10;;
19760;SDS011;10039;42.632;23.408;2023-06-22T00:43:19;0.10;;;0.10;;
19760;SDS011;10039;42.632;23.408;2023-06-22T00:45:45;0.10;;;0.10;;
19760;SDS011;10039;42.632;23.408;2023-06-22T00:48:11;0.10;;;0.10;;
19760;SDS011;10039;42.632;23.408;2023-06-22T00:50:37;0.10;;;0.10;;
19760;SDS011;10039;42.632;23.408;2023-06-22T00:53:06;0.10;;;0.10;;
19760;SDS011;10039;42.632;23.408;2023-06-22T00:55:42;0.10;;;0.10;;
19760;SDS011;10039;42.632;23.408;2023-06-22T00:58:10;0.00;;;0.00;;
19760;SDS011;10039;42.632;23.408;2023-06-22T01:00:37;0.10;;;0.10;;
19760;SDS011;10039;42.632;23.408;2023-06-22T01:03:03;0.10;;;0.10;;
19760;SDS011;10039;42.632;23.408;2023-06-22T01:05:29;0.10;;;0.10;;
19760;SDS011;10039;42.632;23.408;2023-06-22T01:18:55;0.10;;;0.10;;
19760;SDS011;10039;42.632;23.408;2023-06-22T01:21:25;0.10;;;0.10;;
19760;SDS011;10039;42.632;23.408;2023-06-22T01:29:03;0.10;;;0.10;;
19760;SDS011;10039;42.632;23.408;2023-06-22T01:31:32;0.10;;;0.10;;
19760;SDS011;10039;42.632;23.408;2023-06-22T01:34:01;0.10;;;0.10;;
19760;SDS011;10039;42.632;23.408;2023-06-22T01:36:30;0.05;;;0.05;;
19760;SDS011;10039;42.632;23.408;2023-06-22T01:38:57;0.10;;;0.10;;
19760;SDS011;10039;42.632;23.408;2023-06-22T01:41:27;0.10;;;0.10;;
19760;SDS011;10039;42.632;23.408;2023-06-22T01:43:55;0.10;;;0.10;;
19760;SDS011;10039;42.632;23.408;2023-06-22T01:46:21;0.10;;;0.10;;
19760;SDS011;10039;42.632;23.408;2023-06-22T01:48:48;0.10;;;0.10;;
19760;SDS011;10039;42.632;23.408;2023-06-22T01:51:14;0.10;;;0.10;;
19760;SDS011;10039;42.632;23.408;2023-06-22T01:53:40;0.10;;;0.10;;
19760;SDS011;10039;42.632;23.408;2023-06-22T01:56:06;0.10;;;0.10;;
19760;SDS011;10039;42.632;23.408;2023-06-22T01:58:32;0.05;;;0.05;;
19760;SDS011;10039;42.632;23.408;2023-06-22T02:01:11;0.10;;;0.10;;
19760;SDS011;10039;42.632;23.408;2023-06-22T02:03:43;0.13;;;0.13;;
19760;SDS011;10039;42.632;23.408;2023-06-22T02:06:20;0.10;;;0.10;;
19760;SDS011;10039;42.632;23.408;2023-06-22T02:08:49;0.00;;;0.00;;
19760;SDS011;10039;42.632;23.408;2023-06-22T02:11:20;0.10;;;0.10;;
19760;SDS011;10039;42.632;23.408;2023-06-22T02:13:47;0.10;;;0.10;;
19760;SDS011;10039;42.632;23.408;2023-06-22T02:16:14;0.10;;;0.10;;
19760;SDS011;10039;42.632;23.408;2023-06-22T02:18:48;0.10;;;0.10;;
19760;SDS011;10039;42.632;23.408;2023-06-22T02:21:20;0.10;;;0.10;;
19760;SDS011;10039;42.632;23.408;2023-06-22T02:23:46;0.10;;;0.10;;
19760;SDS011;10039;42.632;23.408;2023-06-22T02:26:12;0.10;;;0.10;;
19760;SDS011;10039;42.632;23.408;2023-06-22T02:28:38;0.10;;;0.10;;
19760;SDS011;10039;42.632;23.408;2023-06-22T02:31:03;0.10;;;0.10;;
19760;SDS011;10039;42.632;23.408;2023-06-22T02:33:29;0.10;;;0.10;;
19760;SDS011;10039;42.632;23.408;2023-06-22T02:35:55;0.10;;;0.10;;
19760;SDS011;10039;42.632;23.408;2023-06-22T02:38:20;0.10;;;0.10;;
19760;SDS011;10039;42.632;23.408;2023-06-22T02:40:48;0.10;;;0.10;;
19760;SDS011;10039;42.632;23.408;2023-06-22T02:43:13;0.13;;;0.13;;
19760;SDS011;10039;42.632;23.408;2023-06-22T02:45:39;0.10;;;0.10;;
19760;SDS011;10039;42.632;23.408;2023-06-22T02:48:04;0.10;;;0.10;;
19760;SDS011;10039;42.632;23.408;2023-06-22T02:50:30;0.10;;;0.10;;
19760;SDS011;10039;42.632;23.408;2023-06-22T02:52:55;0.10;;;0.10;;
19760;SDS011;10039;42.632;23.408;2023-06-22T02:55:21;0.10;;;0.10;;
19760;SDS011;10039;42.632;23.408;2023-06-22T02:57:46;0.00;;;0.00;;
19760;SDS011;10039;42.632;23.408;2023-06-22T03:00:13;0.10;;;0.10;;
19760;SDS011;10039;42.632;23.408;2023-06-22T03:02:51;0.10;;;0.10;;
19760;SDS011;10039;42.632;23.408;2023-06-22T03:05:17;0.10;;;0.10;;
19760;SDS011;10039;42.632;23.408;2023-06-22T03:07:46;0.10;;;0.10;;
19760;SDS011;10039;42.632;23.408;2023-06-22T03:10:12;0.10;;;0.10;;
19760;SDS011;10039;42.632;23.408;2023-06-22T03:12:39;0.10;;;0.10;;
19760;SDS011;10039;42.632;23.408;2023-06-22T03:15:06;0.10;;;0.10;;
19760;SDS011;10039;42.632;23.408;2023-06-22T03:17:33;0.00;;;0.00;;
19760;SDS011;10039;42.632;23.408;2023-06-22T03:20:02;0.10;;;0.10;;
19760;SDS011;10039;42.632;23.408;2023-06-22T03:22:35;0.10;;;0.10;;
19760;SDS011;10039;42.632;23.408;2023-06-22T03:25:01;0.00;;;0.00;;
19760;SDS011;10039;42.632;23.408;2023-06-22T03:27:27;0.10;;;0.10;;
19760;SDS011;10039;42.632;23.408;2023-06-22T03:29:52;0.10;;;0.10;;
19760;SDS011;10039;42.632;23.408;2023-06-22T03:32:18;0.10;;;0.10;;
19760;SDS011;10039;42.632;23.408;2023-06-22T03:34:43;0.10;;;0.10;;
19760;SDS011;10039;42.632;23.408;2023-06-22T03:37:12;0.10;;;0.10;;
19760;SDS011;10039;42.632;23.408;2023-06-22T03:39:39;0.20;;;0.20;;
19760;SDS011;10039;42.632;23.408;2023-06-22T03:42:04;0.10;;;0.10;;
19760;SDS011;10039;42.632;23.408;2023-06-22T03:44:30;0.10;;;0.10;;
19760;SDS011;10039;42.632;23.408;2023-06-22T03:46:56;0.00;;;0.00;;
19760;SDS011;10039;42.632;23.408;2023-06-22T03:49:21;0.10;;;0.10;;
19760;SDS011;10039;42.632;23.408;2023-06-22T03:51:46;0.10;;;0.10;;
19760;SDS011;10039;42.632;23.408;2023-06-22T03:54:12;0.10;;;0.10;;
19760;SDS011;10039;42.632;23.408;2023-06-22T03:56:38;0.10;;;0.10;;
19760;SDS011;10039;42.632;23.408;2023-06-22T03:59:04;0.10;;;0.10;;
19760;SDS011;10039;42.632;23.408;2023-06-22T04:01:50;0.10;;;0.10;;
19760;SDS011;10039;42.632;23.408;2023-06-22T04:04:15;0.10;;;0.10;;
19760;SDS011;10039;42.632;23.408;2023-06-22T04:06:43;0.10;;;0.10;;
19760;SDS011;10039;42.632;23.408;2023-06-22T04:09:09;0.10;;;0.10;;
19760;SDS011;10039;42.632;23.408;2023-06-22T04:11:34;0.10;;;0.10;;
19760;SDS011;10039;42.632;23.408;2023-06-22T04:14:00;0.10;;;0.10;;
19760;SDS011;10039;42.632;23.408;2023-06-22T04:16:25;0.10;;;0.10;;
19760;SDS011;10039;42.632;23.408;2023-06-22T04:18:50;0.10;;;0.10;;
19760;SDS011;10039;42.632;23.408;2023-06-22T04:21:16;0.08;;;0.08;;
19760;SDS011;10039;42.632;23.408;2023-06-22T04:23:41;0.10;;;0.10;;
19760;SDS011;10039;42.632;23.408;2023-06-22T04:26:08;0.10;;;0.10;;
19760;SDS011;10039;42.632;23.408;2023-06-22T04:28:33;0.10;;;0.10;;
19760;SDS011;10039;42.632;23.408;2023-06-22T04:31:01;0.10;;;0.10;;
19760;SDS011;10039;42.632;23.408;2023-06-22T04:33:27;0.10;;;0.10;;
19760;SDS011;10039;42.632;23.408;2023-06-22T04:35:54;0.00;;;0.00;;
19760;SDS011;10039;42.632;23.408;2023-06-22T04:38:22;0.10;;;0.10;;
19760;SDS011;10039;42.632;23.408;2023-06-22T04:40:48;0.10;;;0.10;;
19760;SDS011;10039;42.632;23.408;2023-06-22T04:43:14;0.10;;;0.10;;
19760;SDS011;10039;42.632;23.408;2023-06-22T04:45:39;0.10;;;0.10;;
19760;SDS011;10039;42.632;23.408;2023-06-22T04:48:05;0.10;;;0.10;;
19760;SDS011;10039;42.632;23.408;2023-06-22T04:50:34;0.05;;;0.05;;
19760;SDS011;10039;42.632;23.408;2023-06-22T04:52:59;0.10;;;0.10;;
19760;SDS011;10039;42.632;23.408;2023-06-22T04:55:25;0.10;;;0.10;;
19760;SDS011;10039;42.632;23.408;2023-06-22T04:57:50;0.10;;;0.10;;
19760;SDS011;10039;42.632;23.408;2023-06-22T05:00:17;0.10;;;0.10;;
19760;SDS011;10039;42.632;23.408;2023-06-22T05:02:48;0.10;;;0.10;;
19760;SDS011;10039;42.632;23.408;2023-06-22T05:05:14;0.10;;;0.10;;
19760;SDS011;10039;42.632;23.408;2023-06-22T05:07:43;0.10;;;0.10;;
19760;SDS011;10039;42.632;23.408;2023-06-22T05:10:13;0.10;;;0.10;;
19760;SDS011;10039;42.632;23.408;2023-06-22T05:12:39;0.10;;;0.10;;
19760;SDS011;10039;42.632;23.408;2023-06-22T05:15:06;0.00;;;0.00;;
19760;SDS011;10039;42.632;23.408;2023-06-22T05:17:32;0.10;;;0.10;;
19760;SDS011;10039;42.632;23.408;2023-06-22T05:19:58;0.00;;;0.00;;
19760;SDS011;10039;42.632;23.408;2023-06-22T05:22:24;0.00;;;0.00;;
19760;SDS011;10039;42.632;23.408;2023-06-22T05:24:49;0.10;;;0.10;;
19760;SDS011;10039;42.632;23.408;2023-06-22T05:27:15;0.10;;;0.10;;
19760;SDS011;10039;42.632;23.408;2023-06-22T05:29:40;0.10;;;0.10;;
19760;SDS011;10039;42.632;23.408;2023-06-22T05:32:07;0.00;;;0.00;;
19760;SDS011;10039;42.632;23.408;2023-06-22T05:34:33;0.10;;;0.10;;
19760;SDS011;10039;42.632;23.408;2023-06-22T05:37:02;0.10;;;0.10;;
19760;SDS011;10039;42.632;23.408;2023-06-22T05:39:28;0.10;;;0.10;;
19760;SDS011;10039;42.632;23.408;2023-06-22T05:41:53;0.08;;;0.08;;
19760;SDS011;10039;42.632;23.408;2023-06-22T05:44:18;0.03;;;0.03;;
19760;SDS011;10039;42.632;23.408;2023-06-22T05:46:44;0.10;;;0.10;;
19760;SDS011;10039;42.632;23.408;2023-06-22T05:49:11;0.00;;;0.00;;
19760;SDS011;10039;42.632;23.408;2023-06-22T05:51:38;0.00;;;0.00;;
19760;SDS011;10039;42.632;23.408;2023-06-22T05:54:03;0.00;;;0.00;;
19760;SDS011;10039;42.632;23.408;2023-06-22T05:56:29;0.10;;;0.10;;
19760;SDS011;10039;42.632;23.408;2023-06-22T05:58:54;0.10;;;0.10;;
19760;SDS011;10039;42.632;23.408;2023-06-22T06:01:20;0.03;;;0.03;;
19760;SDS011;10039;42.632;23.408;2023-06-22T06:03:45;0.10;;;0.10;;
19760;SDS011;10039;42.632;23.408;2023-06-22T06:06:11;0.00;;;0.00;;
19760;SDS011;10039;42.632;23.408;2023-06-22T06:08:37;0.00;;;0.00;;
19760;SDS011;10039;42.632;23.408;2023-06-22T06:11:03;0.00;;;0.00;;
19760;SDS011;10039;42.632;23.408;2023-06-22T06:13:29;0.05;;;0.05;;
19760;SDS011;10039;42.632;23.408;2023-06-22T06:15:54;0.10;;;0.10;;
19760;SDS011;10039;42.632;23.408;2023-06-22T06:18:20;0.00;;;0.00;;
19760;SDS011;10039;42.632;23.408;2023-06-22T06:20:46;0.00;;;0.00;;
19760;SDS011;10039;42.632;23.408;2023-06-22T06:23:11;0.03;;;0.03;;
19760;SDS011;10039;42.632;23.408;2023-06-22T06:25:37;0.00;;;0.00;;
19760;SDS011;10039;42.632;23.408;2023-06-22T06:28:02;0.00;;;0.00;;
19760;SDS011;10039;42.632;23.408;2023-06-22T06:30:28;0.00;;;0.00;;
19760;SDS011;10039;42.632;23.408;2023-06-22T06:32:54;0.05;;;0.05;;
19760;SDS011;10039;42.632;23.408;2023-06-22T06:35:19;0.00;;;0.00;;
19760;SDS011;10039;42.632;23.408;2023-06-22T06:37:47;0.00;;;0.00;;
19760;SDS011;10039;42.632;23.408;2023-06-22T06:40:14;0.00;;;0.00;;
19760;SDS011;10039;42.632;23.408;2023-06-22T06:42:41;0.00;;;0.00;;
19760;SDS011;10039;42.632;23.408;2023-06-22T06:45:18;0.00;;;0.00;;
19760;SDS011;10039;42.632;23.408;2023-06-22T06:47:45;0.00;;;0.00;;
19760;SDS011;10039;42.632;23.408;2023-06-22T06:50:11;0.00;;;0.00;;
19760;SDS011;10039;42.632;23.408;2023-06-22T06:52:37;0.00;;;0.00;;
19760;SDS011;10039;42.632;23.408;2023-06-22T06:55:03;0.00;;;0.00;;
19760;SDS011;10039;42.632;23.408;2023-06-22T06:57:32;0.00;;;0.00;;
19760;SDS011;10039;42.632;23.408;2023-06-22T06:59:59;0.00;;;0.00;;
19760;SDS011;10039;42.632;23.408;2023-06-22T07:02:25;0.00;;;0.00;;
19760;SDS011;10039;42.632;23.408;2023-06-22T07:04:53;0.00;;;0.00;;
19760;SDS011;10039;42.632;23.408;2023-06-22T07:07:20;0.00;;;0.00;;
19760;SDS011;10039;42.632;23.408;2023-06-22T07:09:46;0.00;;;0.00;;
19760;SDS011;10039;42.632;23.408;2023-06-22T07:12:11;0.00;;;0.00;;
19760;SDS011;10039;42.632;23.408;2023-06-22T07:14:37;0.00;;;0.00;;
19760;SDS011;10039;42.632;23.408;2023-06-22T07:17:03;0.00;;;0.00;;
19760;SDS011;10039;42.632;23.408;2023-06-22T07:19:28;0.00;;;0.00;;
19760;SDS011;10039;42.632;23.408;2023-06-22T07:21:54;0.00;;;0.00;;
19760;SDS011;10039;42.632;23.408;2023-06-22T07:24:22;0.00;;;0.00;;
19760;SDS011;10039;42.632;23.408;2023-06-22T07:26:48;0.00;;;0.00;;
19760;SDS011;10039;42.632;23.408;2023-06-22T07:29:16;0.00;;;0.00;;
19760;SDS011;10039;42.632;23.408;2023-06-22T07:31:42;0.00;;;0.00;;
19760;SDS011;10039;42.632;23.408;2023-06-22T07:34:07;0.00;;;0.00;;
19760;SDS011;10039;42.632;23.408;2023-06-22T07:36:33;0.00;;;0.00;;
19760;SDS011;10039;42.632;23.408;2023-06-22T07:39:00;0.00;;;0.00;;
19760;SDS011;10039;42.632;23.408;2023-06-22T07:41:27;0.00;;;0.00;;
19760;SDS011;10039;42.632;23.408;2023-06-22T07:43:53;0.00;;;0.00;;
19760;SDS011;10039;42.632;23.408;2023-06-22T07:46:18;0.00;;;0.00;;
19760;SDS011;10039;42.632;23.408;2023-06-22T07:48:44;0.00;;;0.00;;
19760;SDS011;10039;42.632;23.408;2023-06-22T07:51:09;0.00;;;0.00;;
19760;SDS011;10039;42.632;23.408;2023-06-22T07:53:39;0.00;;;0.00;;
19760;SDS011;10039;42.632;23.408;2023-06-22T07:56:05;0.00;;;0.00;;
19760;SDS011;10039;42.632;23.408;2023-06-22T07:58:32;0.00;;;0.00;;
19760;SDS011;10039;42.632;23.408;2023-06-22T08:00:58;0.00;;;0.00;;
19760;SDS011;10039;42.632;23.408;2023-06-22T08:03:23;0.00;;;0.00;;
19760;SDS011;10039;42.632;23.408;2023-06-22T08:05:48;0.00;;;0.00;;
19760;SDS011;10039;42.632;23.408;2023-06-22T08:08:14;0.00;;;0.00;;
19760;SDS011;10039;42.632;23.408;2023-06-22T08:10:41;0.00;;;0.00;;
19760;SDS011;10039;42.632;23.408;2023-06-22T08:13:07;0.00;;;0.00;;
19760;SDS011;10039;42.632;23.408;2023-06-22T08:15:33;0.00;;;0.00;;
19760;SDS011;10039;42.632;23.408;2023-06-22T08:17:58;0.00;;;0.00;;
19760;SDS011;10039;42.632;23.408;2023-06-22T08:20:25;0.00;;;0.00;;
19760;SDS011;10039;42.632;23.408;2023-06-22T08:22:52;0.00;;;0.00;;
19760;SDS011;10039;42.632;23.408;2023-06-22T08:25:19;0.00;;;0.00;;
19760;SDS011;10039;42.632;23.408;2023-06-22T08:27:46;0.00;;;0.00;;
19760;SDS011;10039;42.632;23.408;2023-06-22T08:30:12;0.00;;;0.00;;
19760;SDS011;10039;42.632;23.408;2023-06-22T08:32:38;0.00;;;0.00;;
19760;SDS011;10039;42.632;23.408;2023-06-22T08:35:04;0.00;;;0.00;;
19760;SDS011;10039;42.632;23.408;2023-06-22T08:37:31;0.00;;;0.00;;
19760;SDS011;10039;42.632;23.408;2023-06-22T08:40:00;0.00;;;0.00;;
19760;SDS011;10039;42.632;23.408;2023-06-22T08:42:30;0.00;;;0.00;;
19760;SDS011;10039;42.632;23.408;2023-06-22T08:44:56;0.00;;;0.00;;
19760;SDS011;10039;42.632;23.408;2023-06-22T08:47:22;0.00;;;0.00;;
19760;SDS011;10039;42.632;23.408;2023-06-22T08:49:48;0.00;;;0.00;;
19760;SDS011;10039;42.632;23.408;2023-06-22T08:52:13;0.00;;;0.00;;
19760;SDS011;10039;42.632;23.408;2023-06-22T08:54:39;0.00;;;0.00;;
19760;SDS011;10039;42.632;23.408;2023-06-22T08:57:04;0.00;;;0.00;;
19760;SDS011;10039;42.632;23.408;2023-06-22T08:59:30;0.00;;;0.00;;
19760;SDS011;10039;42.632;23.408;2023-06-22T09:01:56;0.00;;;0.00;;
19760;SDS011;10039;42.632;23.408;2023-06-22T09:04:21;0.00;;;0.00;;
19760;SDS011;10039;42.632;23.408;2023-06-22T09:06:47;0.00;;;0.00;;
19760;SDS011;10039;42.632;23.408;2023-06-22T09:09:13;0.00;;;0.00;;
19760;SDS011;10039;42.632;23.408;2023-06-22T09:11:39;0.00;;;0.00;;
19760;SDS011;10039;42.632;23.408;2023-06-22T09:14:05;0.00;;;0.00;;
19760;SDS011;10039;42.632;23.408;2023-06-22T09:16:30;0.00;;;0.00;;
19760;SDS011;10039;42.632;23.408;2023-06-22T09:18:56;0.00;;;0.00;;
19760;SDS011;10039;42.632;23.408;2023-06-22T09:21:21;0.00;;;0.00;;
19760;SDS011;10039;42.632;23.408;2023-06-22T09:23:48;0.00;;;0.00;;
19760;SDS011;10039;42.632;23.408;2023-06-22T09:26:16;0.00;;;0.00;;
19760;SDS011;10039;42.632;23.408;2023-06-22T09:28:42;0.00;;;0.00;;
19760;SDS011;10039;42.632;23.408;2023-06-22T09:31:08;0.00;;;0.00;;
19760;SDS011;10039;42.632;23.408;2023-06-22T09:33:33;0.00;;;0.00;;
19760;SDS011;10039;42.632;23.408;2023-06-22T09:35:58;0.00;;;0.00;;
19760;SDS011;10039;42.632;23.408;2023-06-22T09:38:24;0.00;;;0.00;;
19760;SDS011;10039;42.632;23.408;2023-06-22T09:40:49;0.00;;;0.00;;
19760;SDS011;10039;42.632;23.408;2023-06-22T09:43:14;0.00;;;0.00;;
19760;SDS011;10039;42.632;23.408;2023-06-22T09:45:40;0.00;;;0.00;;
19760;SDS011;10039;42.632;23.408;2023-06-22T09:48:05;0.00;;;0.00;;
19760;SDS011;10039;42.632;23.408;2023-06-22T09:50:31;0.00;;;0.00;;
19760;SDS011;10039;42.632;23.408;2023-06-22T09:52:56;0.00;;;0.00;;
19760;SDS011;10039;42.632;23.408;2023-06-22T09:55:22;0.00;;;0.00;;
19760;SDS011;10039;42.632;23.408;2023-06-22T09:57:47;0.00;;;0.00;;
19760;SDS011;10039;42.632;23.408;2023-06-22T10:00:13;0.00;;;0.00;;
19760;SDS011;10039;42.632;23.408;2023-06-22T10:02:43;0.00;;;0.00;;
19760;SDS011;10039;42.632;23.408;2023-06-22T10:05:10;0.00;;;0.00;;
19760;SDS011;10039;42.632;23.408;2023-06-22T10:07:35;0.00;;;0.00;;
19760;SDS011;10039;42.632;23.408;2023-06-22T10:10:05;0.00;;;0.00;;
19760;SDS011;10039;42.632;23.408;2023-06-22T10:12:32;0.00;;;0.00;;
19760;SDS011;10039;42.632;23.408;2023-06-22T10:14:57;0.00;;;0.00;;
19760;SDS011;10039;42.632;23.408;2023-06-22T10:17:23;0.00;;;0.00;;
19760;SDS011;10039;42.632;23.408;2023-06-22T10:19:48;0.00;;;0.00;;
19760;SDS011;10039;42.632;23.408;2023-06-22T10:22:14;0.00;;;0.00;;
19760;SDS011;10039;42.632;23.408;2023-06-22T10:24:39;0.00;;;0.00;;
19760;SDS011;10039;42.632;23.408;2023-06-22T10:27:09;0.00;;;0.00;;
19760;SDS011;10039;42.632;23.408;2023-06-22T10:29:35;0.00;;;0.00;;
19760;SDS011;10039;42.632;23.408;2023-06-22T10:32:01;0.00;;;0.00;;
19760;SDS011;10039;42.632;23.408;2023-06-22T10:34:27;0.00;;;0.00;;
19760;SDS011;10039;42.632;23.408;2023-06-22T10:36:52;0.00;;;0.00;;
19760;SDS011;10039;42.632;23.408;2023-06-22T10:39:18;0.00;;;0.00;;
19760;SDS011;10039;42.632;23.408;2023-06-22T10:41:43;0.00;;;0.00;;
19760;SDS011;10039;42.632;23.408;2023-06-22T10:44:09;0.00;;;0.00;;
19760;SDS011;10039;42.632;23.408;2023-06-22T10:46:34;0.00;;;0.00;;
19760;SDS011;10039;42.632;23.408;2023-06-22T10:49:00;0.00;;;0.00;;
19760;SDS011;10039;42.632;23.408;2023-06-22T10:51:26;0.00;;;0.00;;
19760;SDS011;10039;42.632;23.408;2023-06-22T10:53:53;0.00;;;0.00;;
19760;SDS011;10039;42.632;23.408;2023-06-22T10:56:18;0.00;;;0.00;;
19760;SDS011;10039;42.632;23.408;2023-06-22T10:58:44;0.00;;;0.00;;
19760;SDS011;10039;42.632;23.408;2023-06-22T11:01:11;0.00;;;0.00;;
19760;SDS011;10039;42.632;23.408;2023-06-22T11:03:36;0.00;;;0.00;;
19760;SDS011;10039;42.632;23.408;2023-06-22T11:06:02;0.00;;;0.00;;
19760;SDS011;10039;42.632;23.408;2023-06-22T11:08:27;0.00;;;0.00;;
19760;SDS011;10039;42.632;23.408;2023-06-22T11:10:52;0.00;;;0.00;;
19760;SDS011;10039;42.632;23.408;2023-06-22T11:13:18;0.00;;;0.00;;
19760;SDS011;10039;42.632;23.408;2023-06-22T11:15:43;0.00;;;0.00;;
19760;SDS011;10039;42.632;23.408;2023-06-22T11:18:09;0.00;;;0.00;;
19760;SDS011;10039;42.632;23.408;2023-06-22T11:20:35;0.00;;;0.00;;
19760;SDS011;10039;42.632;23.408;2023-06-22T11:23:04;0.00;;;0.00;;
19760;SDS011;10039;42.632;23.408;2023-06-22T11:25:32;0.00;;;0.00;;
19760;SDS011;10039;42.632;23.408;2023-06-22T11:27:59;0.00;;;0.00;;
19760;SDS011;10039;42.632;23.408;2023-06-22T11:30:28;0.00;;;0.00;;
19760;SDS011;10039;42.632;23.408;2023-06-22T11:32:53;0.00;;;0.00;;
19760;SDS011;10039;42.632;23.408;2023-06-22T11:35:19;0.00;;;0.00;;
19760;SDS011;10039;42.632;23.408;2023-06-22T11:37:44;0.00;;;0.00;;
19760;SDS011;10039;42.632;23.408;2023-06-22T11:40:10;0.00;;;0.00;;
19760;SDS011;10039;42.632;23.408;2023-06-22T11:42:36;0.00;;;0.00;;
19760;SDS011;10039;42.632;23.408;2023-06-22T11:45:01;0.00;;;0.00;;
19760;SDS011;10039;42.632;23.408;2023-06-22T11:47:28;0.00;;;0.00;;
19760;SDS011;10039;42.632;23.408;2023-06-22T11:49:54;0.00;;;0.00;;
19760;SDS011;10039;42.632;23.408;2023-06-22T11:52:19;0.00;;;0.00;;
19760;SDS011;10039;42.632;23.408;2023-06-22T11:54:45;0.00;;;0.00;;
19760;SDS011;10039;42.632;23.408;2023-06-22T11:57:10;0.00;;;0.00;;
19760;SDS011;10039;42.632;23.408;2023-06-22T11:59:36;0.00;;;0.00;;
19760;SDS011;10039;42.632;23.408;2023-06-22T12:02:01;0.00;;;0.00;;
19760;SDS011;10039;42.632;23.408;2023-06-22T12:04:27;0.00;;;0.00;;
19760;SDS011;10039;42.632;23.408;2023-06-22T12:06:53;0.00;;;0.00;;
19760;SDS011;10039;42.632;23.408;2023-06-22T12:09:18;0.00;;;0.00;;
19760;SDS011;10039;42.632;23.408;2023-06-22T12:11:43;0.00;;;0.00;;
19760;SDS011;10039;42.632;23.408;2023-06-22T12:14:09;0.00;;;0.00;;
19760;SDS011;10039;42.632;23.408;2023-06-22T12:16:34;0.00;;;0.00;;
19760;SDS011;10039;42.632;23.408;2023-06-22T12:19:00;0.00;;;0.00;;
19760;SDS011;10039;42.632;23.408;2023-06-22T12:21:25;0.00;;;0.00;;
19760;SDS011;10039;42.632;23.408;2023-06-22T12:23:51;0.00;;;0.00;;
19760;SDS011;10039;42.632;23.408;2023-06-22T12:26:16;0.00;;;0.00;;
19760;SDS011;10039;42.632;23.408;2023-06-22T12:28:42;0.00;;;0.00;;
19760;SDS011;10039;42.632;23.408;2023-06-22T12:31:07;0.00;;;0.00;;
19760;SDS011;10039;42.632;23.408;2023-06-22T12:33:33;0.00;;;0.00;;
19760;SDS011;10039;42.632;23.408;2023-06-22T12:35:58;0.00;;;0.00;;
19760;SDS011;10039;42.632;23.408;2023-06-22T12:38:24;0.00;;;0.00;;
19760;SDS011;10039;42.632;23.408;2023-06-22T12:40:50;0.00;;;0.00;;
19760;SDS011;10039;42.632;23.408;2023-06-22T12:43:16;0.00;;;0.00;;
19760;SDS011;10039;42.632;23.408;2023-06-22T12:45:42;0.00;;;0.00;;
19760;SDS011;10039;42.632;23.408;2023-06-22T12:48:07;0.00;;;0.00;;
19760;SDS011;10039;42.632;23.408;2023-06-22T12:50:33;0.00;;;0.00;;
19760;SDS011;10039;42.632;23.408;2023-06-22T12:52:59;0.00;;;0.00;;
19760;SDS011;10039;42.632;23.408;2023-06-22T12:55:26;0.00;;;0.00;;
19760;SDS011;10039;42.632;23.408;2023-06-22T12:57:51;0.00;;;0.00;;
19760;SDS011;10039;42.632;23.408;2023-06-22T13:00:17;0.00;;;0.00;;
19760;SDS011;10039;42.632;23.408;2023-06-22T13:02:42;0.00;;;0.00;;
19760;SDS011;10039;42.632;23.408;2023-06-22T13:05:08;0.00;;;0.00;;
19760;SDS011;10039;42.632;23.408;2023-06-22T13:07:33;0.00;;;0.00;;
19760;SDS011;10039;42.632;23.408;2023-06-22T13:09:59;0.00;;;0.00;;
19760;SDS011;10039;42.632;23.408;2023-06-22T13:12:25;0.00;;;0.00;;
19760;SDS011;10039;42.632;23.408;2023-06-22T13:14:50;0.00;;;0.00;;
19760;SDS011;10039;42.632;23.408;2023-06-22T13:17:16;0.00;;;0.00;;
19760;SDS011;10039;42.632;23.408;2023-06-22T13:19:41;0.00;;;0.00;;
19760;SDS011;10039;42.632;23.408;2023-06-22T13:24:54;0.00;;;0.00;;
19760;SDS011;10039;42.632;23.408;2023-06-22T13:27:20;0.00;;;0.00;;
19760;SDS011;10039;42.632;23.408;2023-06-22T13:29:45;0.00;;;0.00;;
19760;SDS011;10039;42.632;23.408;2023-06-22T13:32:11;0.00;;;0.00;;
19760;SDS011;10039;42.632;23.408;2023-06-22T13:34:36;0.00;;;0.00;;
19760;SDS011;10039;42.632;23.408;2023-06-22T13:37:02;0.00;;;0.00;;
19760;SDS011;10039;42.632;23.408;2023-06-22T13:39:27;0.00;;;0.00;;
19760;SDS011;10039;42.632;23.408;2023-06-22T13:41:52;0.00;;;0.00;;
19760;SDS011;10039;42.632;23.408;2023-06-22T13:44:18;0.00;;;0.00;;
19760;SDS011;10039;42.632;23.408;2023-06-22T13:46:43;0.00;;;0.00;;
19760;SDS011;10039;42.632;23.408;2023-06-22T13:49:09;0.00;;;0.00;;
19760;SDS011;10039;42.632;23.408;2023-06-22T13:51:34;0.08;;;0.08;;
19760;SDS011;10039;42.632;23.408;2023-06-22T13:54:01;0.00;;;0.00;;
19760;SDS011;10039;42.632;23.408;2023-06-22T13:56:26;0.05;;;0.05;;
19760;SDS011;10039;42.632;23.408;2023-06-22T13:58:52;0.00;;;0.00;;
19760;SDS011;10039;42.632;23.408;2023-06-22T14:01:17;0.08;;;0.08;;
19760;SDS011;10039;42.632;23.408;2023-06-22T14:03:43;0.00;;;0.00;;
19760;SDS011;10039;42.632;23.408;2023-06-22T14:06:10;0.05;;;0.05;;
19760;SDS011;10039;42.632;23.408;2023-06-22T14:08:36;0.00;;;0.00;;
19760;SDS011;10039;42.632;23.408;2023-06-22T14:11:02;0.00;;;0.00;;
19760;SDS011;10039;42.632;23.408;2023-06-22T14:13:28;0.10;;;0.10;;
19760;SDS011;10039;42.632;23.408;2023-06-22T14:15:53;0.00;;;0.00;;
19760;SDS011;10039;42.632;23.408;2023-06-22T14:18:19;0.00;;;0.00;;
19760;SDS011;10039;42.632;23.408;2023-06-22T14:20:47;0.10;;;0.10;;
19760;SDS011;10039;42.632;23.408;2023-06-22T14:23:13;0.10;;;0.10;;
19760;SDS011;10039;42.632;23.408;2023-06-22T14:25:39;0.03;;;0.03;;
19760;SDS011;10039;42.632;23.408;2023-06-22T14:28:08;0.10;;;0.10;;
19760;SDS011;10039;42.632;23.408;2023-06-22T14:30:34;0.00;;;0.00;;
19760;SDS011;10039;42.632;23.408;2023-06-22T14:32:59;0.00;;;0.00;;
19760;SDS011;10039;42.632;23.408;2023-06-22T14:35:25;0.10;;;0.10;;
19760;SDS011;10039;42.632;23.408;2023-06-22T14:37:50;0.00;;;0.00;;
19760;SDS011;10039;42.632;23.408;2023-06-22T14:40:16;0.00;;;0.00;;
19760;SDS011;10039;42.632;23.408;2023-06-22T14:42:41;0.00;;;0.00;;
19760;SDS011;10039;42.632;23.408;2023-06-22T14:45:07;0.00;;;0.00;;
19760;SDS011;10039;42.632;23.408;2023-06-22T14:47:32;0.00;;;0.00;;